Time;durP1;ratioP1;P1;durP2;ratioP2;P2;SDS_P1;SDS_P2;PMS_P1;PMS_P2;Temp;Humidity;BMP_temperature;BMP_pressure;BME280_temperature;BME280_humidity;BME280_pressure;Samples;Min_cycle;Max_cycle;Signal;HPM_P1;HPM_P2
2024/02/19 00:01:37;;;;;;;96.70;68.03;;;;;;;;;;5011757;28;20095;-58
2024/02/19 00:04:04;;;;;;;95.72;66.80;;;;;;;;;;5011750;28;20041;-56
2024/02/19 00:06:30;;;;;;;102.70;69.47;;;;;;;;;;5011633;28;20067;-53
2024/02/19 00:08:56;;;;;;;102.32;68.93;;;;;;;;;;5011616;28;20127;-57
2024/02/19 00:11:22;;;;;;;101.53;67.45;;;;;;;;;;5011701;28;20083;-56
2024/02/19 00:13:48;;;;;;;97.78;68.57;;;;;;;;;;5011788;28;20030;-55
2024/02/19 00:16:14;;;;;;;106.15;73.22;;;;;;;;;;5009156;28;20120;-57
2024/02/19 00:18:40;;;;;;;106.03;73.22;;;;;;;;;;5003234;28;20460;-53
2024/02/19 00:21:06;;;;;;;107.22;71.50;;;;;;;;;;5003062;28;20084;-57
2024/02/19 00:23:34;;;;;;;102.63;73.63;;;;;;;;;;5004342;28;20026;-58
2024/02/19 00:26:00;;;;;;;105.70;72.78;;;;;;;;;;5002059;28;20022;-55
2024/02/19 00:28:26;;;;;;;102.78;72.55;;;;;;;;;;5000249;28;20038;-57
2024/02/19 00:30:53;;;;;;;111.30;76.45;;;;;;;;;;5002363;28;20030;-57
2024/02/19 00:33:20;;;;;;;114.18;76.75;;;;;;;;;;5002944;28;20092;-57
2024/02/19 00:35:46;;;;;;;109.03;74.90;;;;;;;;;;5002058;28;20029;-57
2024/02/19 00:38:13;;;;;;;114.93;78.10;;;;;;;;;;5008673;28;20034;-56
2024/02/19 00:40:40;;;;;;;114.07;78.38;;;;;;;;;;4997558;28;20018;-56
2024/02/19 00:43:06;;;;;;;108.30;76.07;;;;;;;;;;5011388;28;20052;-57
2024/02/19 00:45:32;;;;;;;112.50;77.47;;;;;;;;;;5011597;28;20025;-54
2024/02/19 00:47:58;;;;;;;113.10;79.22;;;;;;;;;;5011549;28;20160;-56
2024/02/19 00:50:24;;;;;;;109.47;76.97;;;;;;;;;;5011450;28;20030;-55
2024/02/19 00:52:50;;;;;;;108.50;77.13;;;;;;;;;;5011338;28;20158;-57
2024/02/19 00:55:20;;;;;;;119.78;81.72;;;;;;;;;;5011235;28;20033;-57
2024/02/19 00:57:47;;;;;;;120.38;83.18;;;;;;;;;;5002296;28;20124;-57
2024/02/19 01:00:13;;;;;;;114.85;82.05;;;;;;;;;;5008371;28;20185;-55
2024/02/19 01:02:40;;;;;;;120.13;83.30;;;;;;;;;;5011311;28;20349;-56
2024/02/19 01:05:06;;;;;;;123.03;85.00;;;;;;;;;;5010099;28;20026;-57
2024/02/19 01:07:32;;;;;;;125.97;85.93;;;;;;;;;;5002223;28;20401;-57
2024/02/19 01:09:58;;;;;;;120.72;85.18;;;;;;;;;;5008840;28;20049;-57
2024/02/19 01:12:24;;;;;;;118.68;82.20;;;;;;;;;;5004305;28;20041;-55
2024/02/19 01:14:50;;;;;;;120.25;83.85;;;;;;;;;;5002031;28;20113;-58
2024/02/19 01:17:16;;;;;;;117.40;82.13;;;;;;;;;;5002869;28;20117;-56
2024/02/19 01:19:44;;;;;;;121.22;82.93;;;;;;;;;;5001646;28;20035;-58
2024/02/19 01:22:10;;;;;;;114.65;80.82;;;;;;;;;;5011239;28;20018;-58
2024/02/19 01:24:37;;;;;;;116.05;81.43;;;;;;;;;;5007286;28;20033;-57
2024/02/19 01:27:03;;;;;;;119.18;83.47;;;;;;;;;;5011083;28;20076;-56
2024/02/19 01:29:30;;;;;;;116.43;80.25;;;;;;;;;;5013190;28;20042;-58
2024/02/19 01:31:55;;;;;;;118.28;81.10;;;;;;;;;;5014456;28;20481;-57
2024/02/19 01:34:21;;;;;;;111.32;78.60;;;;;;;;;;5013017;28;20109;-57
2024/02/19 01:36:47;;;;;;;113.93;78.40;;;;;;;;;;5014297;28;20108;-56
2024/02/19 01:39:15;;;;;;;116.97;81.63;;;;;;;;;;5014409;28;20032;-58
2024/02/19 01:41:41;;;;;;;118.05;82.50;;;;;;;;;;5014234;28;20029;-57
2024/02/19 01:44:08;;;;;;;115.60;79.43;;;;;;;;;;5007672;28;20013;-58
2024/02/19 01:46:37;;;;;;;112.63;79.78;;;;;;;;;;5014482;28;20038;-57
2024/02/19 01:49:03;;;;;;;117.35;80.15;;;;;;;;;;5006505;28;20552;-58
2024/02/19 01:51:29;;;;;;;119.20;80.78;;;;;;;;;;4997368;28;20049;-57
2024/02/19 01:53:55;;;;;;;119.05;80.68;;;;;;;;;;5003873;28;20046;-55
2024/02/19 01:56:22;;;;;;;119.75;83.93;;;;;;;;;;5005458;28;20037;-57
2024/02/19 01:58:48;;;;;;;114.70;79.90;;;;;;;;;;5018115;28;20021;-59
2024/02/19 02:01:15;;;;;;;119.07;82.05;;;;;;;;;;5003404;28;20105;-55
2024/02/19 02:03:43;;;;;;;115.10;81.68;;;;;;;;;;5001631;28;20022;-57
2024/02/19 02:06:09;;;;;;;117.43;81.28;;;;;;;;;;5003943;28;20070;-57
2024/02/19 02:08:42;;;;;;;119.10;83.25;;;;;;;;;;5005014;28;20100;-56
2024/02/19 02:11:08;;;;;;;117.68;81.13;;;;;;;;;;5011737;28;20083;-58
2024/02/19 02:13:36;;;;;;;119.38;83.88;;;;;;;;;;5007557;28;20518;-56
2024/02/19 02:16:03;;;;;;;119.32;82.80;;;;;;;;;;5007224;28;20053;-57
2024/02/19 02:18:32;;;;;;;120.50;82.15;;;;;;;;;;5006303;28;20447;-57
2024/02/19 02:20:58;;;;;;;120.78;83.65;;;;;;;;;;5009923;28;20109;-58
2024/02/19 02:23:25;;;;;;;126.10;86.55;;;;;;;;;;5003771;28;20022;-57
2024/02/19 02:25:53;;;;;;;122.85;84.90;;;;;;;;;;5005315;28;20040;-57
2024/02/19 02:28:18;;;;;;;121.10;84.53;;;;;;;;;;5007105;28;20030;-57
2024/02/19 02:30:45;;;;;;;122.10;86.00;;;;;;;;;;5002181;28;20045;-57
2024/02/19 02:33:11;;;;;;;128.30;89.13;;;;;;;;;;5005779;28;20030;-59
2024/02/19 02:35:37;;;;;;;126.20;86.15;;;;;;;;;;5012124;28;20052;-57
2024/02/19 02:38:03;;;;;;;121.70;83.80;;;;;;;;;;5012383;28;20026;-57
2024/02/19 02:40:29;;;;;;;127.50;85.65;;;;;;;;;;5012352;28;20096;-57
2024/02/19 02:42:55;;;;;;;120.05;84.40;;;;;;;;;;5012501;28;20112;-57
2024/02/19 02:45:21;;;;;;;123.50;87.15;;;;;;;;;;5012703;28;20431;-58
2024/02/19 02:47:47;;;;;;;129.32;90.18;;;;;;;;;;5027857;28;20038;-57
2024/02/19 02:50:13;;;;;;;129.25;89.68;;;;;;;;;;5010718;28;20057;-56
2024/02/19 02:52:39;;;;;;;131.55;92.28;;;;;;;;;;5010427;28;20034;-57
2024/02/19 02:55:05;;;;;;;128.07;89.00;;;;;;;;;;5010197;28;20034;-55
2024/02/19 02:57:31;;;;;;;134.07;91.88;;;;;;;;;;5008777;28;20033;-57
2024/02/19 02:59:57;;;;;;;131.18;92.72;;;;;;;;;;5005620;28;20050;-57
2024/02/19 03:02:25;;;;;;;134.77;90.28;;;;;;;;;;5003508;28;20137;-57
2024/02/19 03:04:51;;;;;;;129.70;87.97;;;;;;;;;;5014790;28;20022;-58
2024/02/19 03:07:17;;;;;;;144.32;94.85;;;;;;;;;;5005827;28;20031;-56
2024/02/19 03:09:43;;;;;;;139.55;93.75;;;;;;;;;;5008880;28;20030;-58
2024/02/19 03:12:09;;;;;;;133.25;93.00;;;;;;;;;;5010178;28;20022;-58
2024/02/19 03:14:35;;;;;;;137.07;94.43;;;;;;;;;;5008832;28;20089;-57
2024/02/19 03:17:01;;;;;;;139.90;94.47;;;;;;;;;;5005420;28;20025;-56
2024/02/19 03:19:27;;;;;;;135.77;93.97;;;;;;;;;;5006325;28;20118;-56
2024/02/19 03:21:55;;;;;;;130.10;94.13;;;;;;;;;;5000819;28;20448;-58
2024/02/19 03:24:21;;;;;;;138.23;94.53;;;;;;;;;;4998694;28;20014;-56
2024/02/19 03:26:47;;;;;;;133.55;92.72;;;;;;;;;;5007591;28;20018;-56
2024/02/19 03:29:13;;;;;;;138.60;95.03;;;;;;;;;;5011906;28;20030;-58
2024/02/19 03:31:43;;;;;;;139.80;95.32;;;;;;;;;;5014500;28;20022;-57
2024/02/19 03:34:09;;;;;;;135.10;93.72;;;;;;;;;;5024617;28;20021;-57
2024/02/19 03:36:35;;;;;;;137.65;93.75;;;;;;;;;;5013519;28;20083;-57
2024/02/19 03:39:01;;;;;;;133.05;94.10;;;;;;;;;;5012353;28;20103;-56
2024/02/19 03:41:27;;;;;;;132.40;94.35;;;;;;;;;;5011957;28;20048;-57
2024/02/19 03:43:53;;;;;;;140.55;93.43;;;;;;;;;;5012084;28;20028;-56
2024/02/19 03:46:19;;;;;;;138.30;91.32;;;;;;;;;;5012140;28;20030;-57
2024/02/19 03:48:45;;;;;;;131.90;90.53;;;;;;;;;;5012059;28;20042;-57
2024/02/19 03:51:11;;;;;;;134.30;91.72;;;;;;;;;;5011436;28;20026;-56
2024/02/19 03:53:37;;;;;;;136.35;91.75;;;;;;;;;;5012205;28;20109;-57
2024/02/19 03:56:04;;;;;;;134.60;91.97;;;;;;;;;;5012079;28;20340;-57
2024/02/19 03:58:30;;;;;;;134.57;92.10;;;;;;;;;;5005030;28;20107;-58
2024/02/19 04:00:57;;;;;;;134.88;91.93;;;;;;;;;;5001558;28;20451;-58
2024/02/19 04:03:23;;;;;;;130.98;92.90;;;;;;;;;;4995149;28;20053;-56
2024/02/19 04:05:49;;;;;;;137.63;92.55;;;;;;;;;;5003587;28;20495;-58
2024/02/19 04:08:16;;;;;;;133.43;92.55;;;;;;;;;;5007347;28;20040;-57
2024/02/19 04:10:42;;;;;;;136.10;91.57;;;;;;;;;;5008233;28;20376;-57
2024/02/19 04:13:08;;;;;;;134.38;92.82;;;;;;;;;;5003539;28;20034;-58
2024/02/19 04:15:34;;;;;;;135.10;91.80;;;;;;;;;;5009211;28;20087;-56
2024/02/19 04:18:00;;;;;;;132.38;90.20;;;;;;;;;;5023847;28;20037;-58
2024/02/19 04:20:26;;;;;;;133.88;93.03;;;;;;;;;;5007559;28;20022;-58
2024/02/19 04:22:52;;;;;;;133.85;91.57;;;;;;;;;;5000011;28;20502;-59
2024/02/19 04:25:18;;;;;;;131.00;92.00;;;;;;;;;;5009139;28;20109;-57
2024/02/19 04:27:44;;;;;;;136.70;94.18;;;;;;;;;;5009859;28;20033;-58
2024/02/19 04:30:10;;;;;;;133.45;93.55;;;;;;;;;;5008717;28;20027;-56
2024/02/19 04:32:36;;;;;;;133.15;92.43;;;;;;;;;;5009972;28;20068;-58
2024/02/19 04:35:02;;;;;;;136.15;91.78;;;;;;;;;;5009957;28;20049;-58
2024/02/19 04:37:30;;;;;;;132.43;92.95;;;;;;;;;;5008400;28;20105;-58
2024/02/19 04:39:56;;;;;;;134.30;92.45;;;;;;;;;;5009539;28;20026;-57
2024/02/19 04:42:22;;;;;;;138.02;92.03;;;;;;;;;;5004496;28;20021;-58
2024/02/19 04:44:48;;;;;;;131.95;90.07;;;;;;;;;;5005954;28;20072;-58
2024/02/19 04:47:14;;;;;;;123.82;89.25;;;;;;;;;;4995339;28;20036;-59
2024/02/19 04:49:40;;;;;;;129.93;89.22;;;;;;;;;;5005942;28;20034;-58
2024/02/19 04:52:06;;;;;;;124.35;90.28;;;;;;;;;;5008558;28;20030;-58
2024/02/19 04:54:32;;;;;;;128.98;90.25;;;;;;;;;;5010834;28;20057;-58
2024/02/19 04:56:58;;;;;;;130.43;91.10;;;;;;;;;;5010101;28;20452;-56
2024/02/19 04:59:24;;;;;;;131.43;91.30;;;;;;;;;;5011076;28;20081;-58
2024/02/19 05:01:50;;;;;;;134.45;93.43;;;;;;;;;;5011342;28;20328;-57
2024/02/19 05:04:18;;;;;;;139.05;92.90;;;;;;;;;;5013442;28;20033;-57
2024/02/19 05:06:44;;;;;;;136.82;94.38;;;;;;;;;;5015002;28;20391;-58
2024/02/19 05:09:10;;;;;;;131.48;91.13;;;;;;;;;;5014703;28;20046;-57
2024/02/19 05:11:36;;;;;;;130.90;91.43;;;;;;;;;;5014845;28;20014;-57
2024/02/19 05:14:02;;;;;;;138.82;94.35;;;;;;;;;;5015225;28;20030;-58
2024/02/19 05:16:28;;;;;;;136.77;93.45;;;;;;;;;;5016230;28;20030;-59
2024/02/19 05:18:56;;;;;;;136.57;93.28;;;;;;;;;;5014784;28;20503;-57
2024/02/19 05:21:22;;;;;;;135.13;91.72;;;;;;;;;;5014622;28;20013;-57
2024/02/19 05:23:48;;;;;;;131.18;90.65;;;;;;;;;;5014882;28;20384;-58
2024/02/19 05:26:14;;;;;;;129.85;91.22;;;;;;;;;;5008672;28;20472;-58
2024/02/19 05:28:40;;;;;;;131.18;90.95;;;;;;;;;;5014988;28;20111;-57
2024/02/19 05:31:06;;;;;;;134.07;92.40;;;;;;;;;;5008960;28;20451;-59
2024/02/19 05:33:32;;;;;;;131.68;94.22;;;;;;;;;;5007114;28;20034;-58
2024/02/19 05:35:58;;;;;;;134.30;90.53;;;;;;;;;;5013155;28;20468;-57
2024/02/19 05:38:24;;;;;;;131.88;90.93;;;;;;;;;;5014407;28;20034;-58
2024/02/19 05:40:50;;;;;;;135.52;90.88;;;;;;;;;;5014465;28;20124;-57
2024/02/19 05:43:16;;;;;;;132.98;90.75;;;;;;;;;;5014250;28;20337;-57
2024/02/19 05:45:42;;;;;;;129.63;89.90;;;;;;;;;;5013028;28;20475;-60
2024/02/19 05:48:08;;;;;;;135.77;92.65;;;;;;;;;;5012101;28;20045;-58
2024/02/19 05:50:34;;;;;;;128.77;90.32;;;;;;;;;;5007612;28;20349;-57
2024/02/19 05:53:06;;;;;;;136.82;91.53;;;;;;;;;;5003940;28;20038;-58
2024/02/19 05:55:33;;;;;;;134.63;90.35;;;;;;;;;;5009844;28;20352;-57
2024/02/19 05:57:59;;;;;;;144.90;95.53;;;;;;;;;;5011200;28;20132;-57
2024/02/19 06:00:25;;;;;;;125.55;89.82;;;;;;;;;;5010470;28;20049;-56
2024/02/19 06:02:51;;;;;;;133.70;93.57;;;;;;;;;;5008520;28;20022;-59
2024/02/19 06:05:18;;;;;;;133.57;93.03;;;;;;;;;;5012420;28;20029;-58
2024/02/19 06:07:44;;;;;;;133.40;93.00;;;;;;;;;;5009309;28;20092;-56
2024/02/19 06:10:10;;;;;;;136.57;94.60;;;;;;;;;;5013428;28;20451;-58
2024/02/19 06:12:36;;;;;;;137.57;95.00;;;;;;;;;;5005976;28;20460;-58
2024/02/19 06:15:02;;;;;;;137.80;93.25;;;;;;;;;;5010781;28;20025;-58
2024/02/19 06:17:28;;;;;;;143.75;97.95;;;;;;;;;;5012533;28;20450;-57
2024/02/19 06:19:54;;;;;;;141.15;97.82;;;;;;;;;;5013694;28;20472;-59
2024/02/19 06:22:20;;;;;;;135.25;92.88;;;;;;;;;;5013113;28;20037;-59
2024/02/19 06:24:46;;;;;;;140.02;95.88;;;;;;;;;;5014577;28;20045;-58
2024/02/19 06:27:12;;;;;;;146.05;96.60;;;;;;;;;;5019911;28;20340;-56
2024/02/19 06:29:38;;;;;;;131.77;93.60;;;;;;;;;;5013388;28;20391;-59
2024/02/19 06:32:06;;;;;;;136.52;95.82;;;;;;;;;;5013443;28;20082;-58
2024/02/19 06:34:34;;;;;;;139.35;95.97;;;;;;;;;;5013338;28;20026;-57
2024/02/19 06:37:00;;;;;;;137.25;93.60;;;;;;;;;;5011241;28;20486;-57
2024/02/19 06:39:26;;;;;;;140.27;95.53;;;;;;;;;;5013442;28;20030;-59
2024/02/19 06:41:52;;;;;;;137.82;93.90;;;;;;;;;;5012287;28;20480;-59
2024/02/19 06:44:18;;;;;;;138.27;93.32;;;;;;;;;;5012300;28;20102;-58
2024/02/19 06:46:44;;;;;;;136.25;96.65;;;;;;;;;;5006776;28;20031;-60
2024/02/19 06:49:10;;;;;;;139.95;95.72;;;;;;;;;;5011104;28;20084;-59
2024/02/19 06:51:36;;;;;;;131.15;93.22;;;;;;;;;;5008732;28;20037;-59
2024/02/19 06:54:02;;;;;;;136.10;95.18;;;;;;;;;;5012081;28;20025;-59
2024/02/19 06:56:28;;;;;;;139.02;94.78;;;;;;;;;;5009920;28;20492;-58
2024/02/19 06:58:54;;;;;;;132.35;95.03;;;;;;;;;;5012873;28;20080;-59
2024/02/19 07:01:20;;;;;;;127.00;86.95;;;;;;;;;;5003028;28;20401;-53
2024/02/19 07:03:46;;;;;;;129.98;90.93;;;;;;;;;;5008600;28;20109;-48
2024/02/19 07:06:12;;;;;;;130.23;91.00;;;;;;;;;;5004158;28;20452;-61
2024/02/19 07:08:38;;;;;;;126.38;92.07;;;;;;;;;;5006990;28;20041;-60
2024/02/19 07:11:04;;;;;;;131.23;91.75;;;;;;;;;;5013707;28;20368;-61
2024/02/19 07:13:30;;;;;;;134.95;93.68;;;;;;;;;;4999996;28;20088;-61
2024/02/19 07:15:56;;;;;;;136.93;93.25;;;;;;;;;;5012829;28;20471;-61
2024/02/19 07:18:22;;;;;;;135.60;95.88;;;;;;;;;;5013135;28;20139;-61
2024/02/19 07:20:48;;;;;;;144.20;99.57;;;;;;;;;;5005001;28;20064;-60
2024/02/19 07:23:14;;;;;;;141.00;98.65;;;;;;;;;;5006397;28;20104;-60
2024/02/19 07:25:40;;;;;;;140.27;96.65;;;;;;;;;;5008318;28;20488;-60
2024/02/19 07:28:06;;;;;;;142.25;97.30;;;;;;;;;;5004959;28;20034;-60
2024/02/19 07:30:32;;;;;;;137.82;96.75;;;;;;;;;;5008689;28;20037;-61
2024/02/19 07:32:58;;;;;;;137.13;96.57;;;;;;;;;;5008429;28;20034;-61
2024/02/19 07:35:24;;;;;;;137.07;96.97;;;;;;;;;;5011571;28;20059;-61
2024/02/19 07:37:50;;;;;;;134.40;94.10;;;;;;;;;;5008919;28;20045;-60
2024/02/19 07:40:16;;;;;;;136.02;97.47;;;;;;;;;;5011828;28;20112;-60
2024/02/19 07:42:42;;;;;;;140.93;99.55;;;;;;;;;;5009372;28;20033;-60
2024/02/19 07:45:08;;;;;;;139.05;100.05;;;;;;;;;;5009541;28;20109;-60
2024/02/19 07:47:34;;;;;;;142.25;99.03;;;;;;;;;;5009437;28;20080;-60
2024/02/19 07:50:00;;;;;;;137.88;97.82;;;;;;;;;;5009465;28;20418;-60
2024/02/19 07:52:26;;;;;;;138.98;97.53;;;;;;;;;;5009469;28;20102;-60
2024/02/19 07:54:52;;;;;;;140.05;100.47;;;;;;;;;;5009378;28;20080;-60
2024/02/19 07:57:18;;;;;;;139.15;97.68;;;;;;;;;;5009553;28;20021;-60
2024/02/19 07:59:44;;;;;;;138.57;95.80;;;;;;;;;;5009190;28;20153;-60
2024/02/19 08:02:11;;;;;;;141.95;98.03;;;;;;;;;;5009241;28;20123;-60
2024/02/19 08:04:37;;;;;;;139.23;99.03;;;;;;;;;;5009459;28;20478;-60
2024/02/19 08:07:03;;;;;;;140.55;98.78;;;;;;;;;;5009001;28;20128;-60
2024/02/19 08:09:29;;;;;;;148.13;98.65;;;;;;;;;;5009178;28;20046;-61
2024/02/19 08:11:57;;;;;;;140.85;99.38;;;;;;;;;;5009073;28;20088;-60
2024/02/19 08:14:24;;;;;;;138.30;100.15;;;;;;;;;;5009295;28;20052;-60
2024/02/19 08:16:50;;;;;;;142.18;100.82;;;;;;;;;;5009724;28;20025;-60
2024/02/19 08:19:17;;;;;;;141.63;97.88;;;;;;;;;;5007963;28;20033;-60
2024/02/19 08:21:44;;;;;;;141.02;99.78;;;;;;;;;;5009343;28;20022;-60
2024/02/19 08:24:10;;;;;;;134.98;98.18;;;;;;;;;;5009536;28;20030;-60
2024/02/19 08:26:36;;;;;;;134.73;95.90;;;;;;;;;;5008940;28;20030;-60
2024/02/19 08:29:03;;;;;;;117.20;84.57;;;;;;;;;;5009085;28;20049;-61
2024/02/19 08:31:29;;;;;;;104.72;77.80;;;;;;;;;;5004057;28;20035;-61
2024/02/19 08:33:56;;;;;;;96.00;72.03;;;;;;;;;;4999864;28;20034;-60
2024/02/19 08:36:22;;;;;;;101.22;74.80;;;;;;;;;;5009902;28;20064;-61
2024/02/19 08:38:50;;;;;;;96.05;72.13;;;;;;;;;;5008996;28;20033;-61
2024/02/19 08:41:16;;;;;;;91.40;71.10;;;;;;;;;;5009974;28;20029;-63
2024/02/19 08:43:42;;;;;;;92.65;69.93;;;;;;;;;;5012909;28;20444;-59
2024/02/19 08:46:08;;;;;;;90.53;69.43;;;;;;;;;;5008867;28;20060;-63
2024/02/19 08:48:34;;;;;;;98.88;73.00;;;;;;;;;;5012124;28;20041;-63
2024/02/19 08:51:01;;;;;;;92.40;73.78;;;;;;;;;;5009940;28;20026;-60
2024/02/19 08:53:28;;;;;;;95.53;73.90;;;;;;;;;;5014412;28;20034;-62
2024/02/19 08:55:54;;;;;;;101.25;75.53;;;;;;;;;;5012355;28;20503;-71
2024/02/19 08:58:20;;;;;;;100.22;77.75;;;;;;;;;;5016099;28;20046;-70
2024/02/19 09:00:46;;;;;;;104.47;79.47;;;;;;;;;;5013186;28;20054;-72
2024/02/19 09:03:12;;;;;;;102.80;75.13;;;;;;;;;;5015423;28;20026;-72
2024/02/19 09:05:38;;;;;;;97.07;73.82;;;;;;;;;;5014003;28;20034;-66
2024/02/19 09:08:05;;;;;;;100.40;73.57;;;;;;;;;;5014140;28;20045;-70
2024/02/19 09:10:31;;;;;;;99.32;74.38;;;;;;;;;;5012594;28;20036;-70
2024/02/19 09:12:57;;;;;;;99.57;74.75;;;;;;;;;;5012978;28;20036;-59
2024/02/19 09:15:23;;;;;;;96.47;70.50;;;;;;;;;;5030569;28;20022;-60
2024/02/19 09:17:49;;;;;;;96.60;73.45;;;;;;;;;;5014650;28;20022;-59
2024/02/19 09:20:16;;;;;;;92.85;72.20;;;;;;;;;;5008109;28;20530;-56
2024/02/19 09:22:43;;;;;;;100.07;76.30;;;;;;;;;;5004977;28;20506;-62
2024/02/19 09:25:09;;;;;;;104.25;76.57;;;;;;;;;;5004080;28;20021;-60
2024/02/19 09:27:35;;;;;;;102.75;77.88;;;;;;;;;;5013521;28;20099;-60
2024/02/19 09:30:03;;;;;;;100.63;75.03;;;;;;;;;;5003845;28;20026;-60
2024/02/19 09:32:29;;;;;;;103.75;74.90;;;;;;;;;;5011078;28;20055;-60
2024/02/19 09:34:55;;;;;;;99.63;74.45;;;;;;;;;;5005316;28;20448;-56
2024/02/19 09:37:25;;;;;;;102.57;78.30;;;;;;;;;;5012585;28;20033;-57
2024/02/19 09:39:58;;;;;;;99.28;77.45;;;;;;;;;;5005120;28;20026;-57
2024/02/19 09:42:24;;;;;;;99.45;77.18;;;;;;;;;;5006289;28;20420;-62
2024/02/19 09:44:50;;;;;;;109.93;80.80;;;;;;;;;;5011152;28;20109;-59
2024/02/19 09:47:17;;;;;;;103.47;78.05;;;;;;;;;;5008782;28;20071;-63
2024/02/19 09:49:44;;;;;;;99.45;75.68;;;;;;;;;;5000129;28;20046;-62
2024/02/19 09:52:11;;;;;;;97.85;74.97;;;;;;;;;;5013545;28;20036;-71
2024/02/19 09:54:37;;;;;;;93.18;72.53;;;;;;;;;;5013434;28;20038;-69
2024/02/19 09:57:09;;;;;;;96.80;74.10;;;;;;;;;;5010467;28;20028;-69
2024/02/19 09:59:36;;;;;;;94.15;71.40;;;;;;;;;;5013825;28;20050;-60
2024/02/19 10:02:02;;;;;;;92.40;70.85;;;;;;;;;;5020843;28;20450;-59
2024/02/19 10:04:28;;;;;;;99.63;72.20;;;;;;;;;;5016427;28;20100;-60
2024/02/19 10:06:54;;;;;;;96.28;70.88;;;;;;;;;;5010653;28;20033;-71
2024/02/19 10:09:21;;;;;;;100.95;73.75;;;;;;;;;;5006270;28;20113;-67
2024/02/19 10:11:49;;;;;;;97.70;72.40;;;;;;;;;;5004050;28;20022;-68
2024/02/19 10:14:15;;;;;;;99.55;73.70;;;;;;;;;;5014342;28;20129;-67
2024/02/19 10:16:41;;;;;;;98.53;73.40;;;;;;;;;;5005321;28;20483;-71
2024/02/19 10:19:07;;;;;;;99.47;72.38;;;;;;;;;;5009227;28;20077;-61
2024/02/19 10:21:34;;;;;;;93.65;72.20;;;;;;;;;;5004690;28;20060;-64
2024/02/19 10:24:00;;;;;;;92.38;71.45;;;;;;;;;;5003825;28;20026;-64
2024/02/19 10:26:26;;;;;;;93.75;71.57;;;;;;;;;;5007881;28;20037;-62
2024/02/19 10:28:55;;;;;;;94.65;71.32;;;;;;;;;;5004081;28;20034;-59
2024/02/19 10:31:21;;;;;;;91.78;70.82;;;;;;;;;;5011716;28;20105;-59
2024/02/19 10:33:48;;;;;;;98.43;73.97;;;;;;;;;;5013328;28;20037;-58
2024/02/19 10:36:19;;;;;;;103.15;70.97;;;;;;;;;;5013299;28;20022;-59
2024/02/19 10:38:45;;;;;;;98.18;72.10;;;;;;;;;;5013546;28;20033;-58
2024/02/19 10:41:11;;;;;;;95.18;71.10;;;;;;;;;;5012979;28;20026;-60
2024/02/19 10:43:37;;;;;;;96.07;70.60;;;;;;;;;;5013200;28;20405;-59
2024/02/19 10:46:04;;;;;;;98.20;72.07;;;;;;;;;;5013464;28;20045;-60
2024/02/19 10:48:31;;;;;;;96.35;72.65;;;;;;;;;;5013086;28;20400;-60
2024/02/19 10:50:57;;;;;;;98.45;74.82;;;;;;;;;;5013205;28;20026;-59
2024/02/19 10:53:28;;;;;;;101.97;74.88;;;;;;;;;;5011772;28;20029;-59
2024/02/19 10:56:08;;;;;;;101.63;75.78;;;;;;;;;;5013142;28;20033;-58
2024/02/19 10:58:34;;;;;;;103.70;77.38;;;;;;;;;;5012951;28;20026;-60
2024/02/19 11:01:03;;;;;;;103.30;77.07;;;;;;;;;;5012010;28;20187;-59
2024/02/19 11:03:30;;;;;;;102.18;77.38;;;;;;;;;;5013183;28;20026;-60
2024/02/19 11:06:01;;;;;;;101.82;76.97;;;;;;;;;;4998885;28;20094;-60
2024/02/19 11:08:34;;;;;;;104.00;77.07;;;;;;;;;;5012876;28;20364;-60
2024/02/19 11:11:09;;;;;;;103.47;78.78;;;;;;;;;;4997308;28;20112;-60
2024/02/19 11:13:38;;;;;;;103.05;78.50;;;;;;;;;;5012805;28;20034;-60
2024/02/19 11:16:15;;;;;;;110.40;80.70;;;;;;;;;;5012725;28;20022;-59
2024/02/19 11:18:41;;;;;;;106.70;77.97;;;;;;;;;;5013283;28;20479;-60
2024/02/19 11:21:07;;;;;;;104.97;80.53;;;;;;;;;;5012939;28;20081;-59
2024/02/19 11:23:33;;;;;;;107.45;83.60;;;;;;;;;;5001601;28;20022;-59
2024/02/19 11:26:00;;;;;;;109.10;83.88;;;;;;;;;;5012609;28;20049;-59
2024/02/19 11:28:30;;;;;;;109.55;81.00;;;;;;;;;;5012418;28;20030;-59
2024/02/19 11:31:01;;;;;;;108.80;81.13;;;;;;;;;;5012362;28;20022;-59
2024/02/19 11:33:27;;;;;;;112.90;81.40;;;;;;;;;;4998666;28;20022;-58
2024/02/19 11:35:56;;;;;;;107.57;82.70;;;;;;;;;;5012631;28;20164;-59
2024/02/19 11:38:22;;;;;;;107.85;83.30;;;;;;;;;;5007703;28;20037;-60
2024/02/19 11:40:49;;;;;;;111.53;83.32;;;;;;;;;;5007889;28;20026;-59
2024/02/19 11:43:15;;;;;;;116.95;87.32;;;;;;;;;;5007632;28;20037;-60
2024/02/19 11:45:41;;;;;;;110.30;84.60;;;;;;;;;;5009067;28;20034;-58
2024/02/19 11:48:08;;;;;;;117.05;83.82;;;;;;;;;;5009681;28;20070;-59
2024/02/19 11:50:34;;;;;;;115.22;86.00;;;;;;;;;;5010725;28;20105;-60
2024/02/19 11:53:02;;;;;;;113.57;84.95;;;;;;;;;;5007238;28;20065;-60
2024/02/19 11:55:29;;;;;;;112.05;86.07;;;;;;;;;;5012015;28;20040;-59
2024/02/19 11:57:56;;;;;;;113.55;87.35;;;;;;;;;;5012114;28;20021;-60
2024/02/19 12:00:22;;;;;;;117.07;88.20;;;;;;;;;;5011719;28;20491;-60
2024/02/19 12:02:48;;;;;;;110.85;86.20;;;;;;;;;;5010521;28;20029;-59
2024/02/19 12:05:18;;;;;;;114.90;88.28;;;;;;;;;;5011922;28;20060;-57
2024/02/19 12:07:45;;;;;;;123.70;90.13;;;;;;;;;;5011886;28;20105;-57
2024/02/19 12:10:11;;;;;;;121.55;90.57;;;;;;;;;;5011751;28;20431;-53
2024/02/19 12:12:38;;;;;;;119.93;89.82;;;;;;;;;;5011753;28;20018;-57
2024/02/19 12:15:05;;;;;;;120.30;90.18;;;;;;;;;;5011820;28;20017;-58
2024/02/19 12:17:31;;;;;;;119.45;88.50;;;;;;;;;;5011761;28;20116;-58
2024/02/19 12:19:57;;;;;;;123.78;88.72;;;;;;;;;;5011946;28;20073;-56
2024/02/19 12:22:23;;;;;;;120.88;89.05;;;;;;;;;;5011185;28;20034;-58
2024/02/19 12:24:52;;;;;;;117.63;90.45;;;;;;;;;;5010820;28;20484;-55
2024/02/19 12:27:18;;;;;;;121.20;89.10;;;;;;;;;;5007736;28;20502;-56
2024/02/19 12:29:44;;;;;;;116.13;87.60;;;;;;;;;;5010944;28;20396;-58
2024/02/19 12:32:10;;;;;;;114.70;85.85;;;;;;;;;;5009831;28;20034;-58
2024/02/19 12:34:39;;;;;;;112.90;87.30;;;;;;;;;;5010226;28;20026;-58
2024/02/19 12:37:05;;;;;;;117.75;90.53;;;;;;;;;;5010351;28;20026;-56
2024/02/19 12:39:31;;;;;;;121.10;92.53;;;;;;;;;;5010792;28;20175;-57
2024/02/19 12:41:57;;;;;;;115.57;88.95;;;;;;;;;;5006970;28;20026;-57
2024/02/19 12:44:23;;;;;;;117.53;90.35;;;;;;;;;;5008196;28;20022;-58
2024/02/19 12:46:50;;;;;;;117.10;88.70;;;;;;;;;;5006008;28;20030;-56
2024/02/19 12:49:19;;;;;;;116.13;86.22;;;;;;;;;;5009922;28;20404;-58
2024/02/19 12:51:48;;;;;;;116.90;86.63;;;;;;;;;;5010440;28;20092;-56
2024/02/19 12:54:14;;;;;;;116.15;85.93;;;;;;;;;;5024251;28;20450;-56
2024/02/19 12:56:40;;;;;;;111.65;84.57;;;;;;;;;;4999251;28;20026;-69
2024/02/19 12:59:06;;;;;;;114.03;86.47;;;;;;;;;;4995169;28;20034;-65
2024/02/19 13:01:33;;;;;;;115.75;86.95;;;;;;;;;;5006370;28;20074;-61
2024/02/19 13:03:59;;;;;;;107.72;82.72;;;;;;;;;;4997962;28;20472;-65
2024/02/19 13:06:25;;;;;;;105.20;79.00;;;;;;;;;;5009274;28;20152;-62
2024/02/19 13:08:51;;;;;;;103.38;79.93;;;;;;;;;;4998253;28;20046;-65
2024/02/19 13:11:19;;;;;;;112.32;83.03;;;;;;;;;;5006918;28;20038;-63
2024/02/19 13:13:45;;;;;;;113.95;83.57;;;;;;;;;;5004223;28;20033;-63
2024/02/19 13:16:14;;;;;;;102.95;80.15;;;;;;;;;;5002163;28;20128;-63
2024/02/19 13:18:40;;;;;;;103.28;81.05;;;;;;;;;;4997612;28;20391;-68
2024/02/19 13:21:07;;;;;;;108.10;77.65;;;;;;;;;;5010814;28;20030;-69
2024/02/19 13:23:33;;;;;;;107.60;79.10;;;;;;;;;;5004124;28;20029;-71
2024/02/19 13:26:02;;;;;;;101.22;78.45;;;;;;;;;;5007270;28;20030;-52
2024/02/19 13:28:28;;;;;;;101.05;77.72;;;;;;;;;;5010634;28;20034;-51
2024/02/19 13:30:55;;;;;;;106.70;79.80;;;;;;;;;;5010833;28;20026;-60
2024/02/19 13:33:21;;;;;;;102.57;77.15;;;;;;;;;;5012763;28;20064;-59
2024/02/19 13:35:47;;;;;;;106.60;82.80;;;;;;;;;;5010878;28;21997;-59
2024/02/19 13:38:16;;;;;;;107.88;80.90;;;;;;;;;;5005512;28;20476;-60
2024/02/19 13:40:42;;;;;;;105.50;81.75;;;;;;;;;;5002068;28;20432;-60
2024/02/19 13:43:09;;;;;;;110.32;82.63;;;;;;;;;;5006201;28;20022;-64
2024/02/19 13:45:56;;;;;;;108.15;81.47;;;;;;;;;;5010904;28;20032;-61
2024/02/19 13:48:24;;;;;;;105.45;82.85;;;;;;;;;;5004042;28;20035;-63
2024/02/19 13:50:51;;;;;;;107.45;79.82;;;;;;;;;;5008944;28;20021;-60
2024/02/19 13:53:17;;;;;;;109.90;82.60;;;;;;;;;;5010477;28;20096;-66
2024/02/19 13:55:43;;;;;;;108.57;83.53;;;;;;;;;;5005507;28;20053;-62
2024/02/19 13:58:09;;;;;;;112.68;85.50;;;;;;;;;;5008292;28;20101;-62
2024/02/19 14:00:35;;;;;;;111.63;85.85;;;;;;;;;;5004845;28;20467;-65
2024/02/19 14:03:01;;;;;;;112.03;86.55;;;;;;;;;;5009361;28;20025;-62